Airport View

Enter AWOS ICAO identifier for current METAR.

ex. KFNL

KAIO 191230Z AUTO 29013KT 10SM OVC012 13/13 A2963 RMK AO2

19 May 2019 12:32

Frequency: 127.825

Phone: 712-243-2748

Other Area AWOS: KHNR - KADU - KRDK - KCBF

TAF KOMA 191129Z 1912/2012 31013KT P6SM OVC015 FM191600 31015G23KT P6SM BKN020 FM200200 33008KT P6SM BKN025 FM200700 35006KT P6SM BKN040